Thunderstorms From: 14-05-2021 11:59 Until: 22:59 warning for: Thunderstorms Level: Yellow info button

Nearby METAR Reports

 

EBAW - Antwerpen, Belgium
Distance from station: NW 22km
Updated: 2021-05-14 12:20
Few Clouds
Few Clouds
 Wind from WNW
Wind: WNW 7 km/h
Temperature: 15°C
Dew Point: 9°C
Humidity: 68%
Barometer: 1008 hPa
Clouds: Few Clouds
Visibility: 10 km
Cloud details: Few Clouds 762 m
2021/05/14 10:20 EBAW 141020Z 30004KT 220V010 9999 FEW025TCU 15/09 Q1008 NOSIG
EBBR - Brussel, Belgium
Distance from station: SW 24km
Updated: 2021-05-14 12:20
Mostly cloudy
Mostly cloudy
 Wind from NNE
Wind: NNE 6 km/h
Temperature: 11°C
Dew Point: 9°C
Humidity: 88%
Barometer: 1008 hPa
Clouds: Mostly cloudy
Visibility: 10 km
Cloud details: Mostly cloudy 914 m
2021/05/14 10:20 EBBR 141020Z 02003KT 340V070 9999 BKN030TCU 11/09 Q1008 NOSIG
 
EBDT - Schaffen, Belgium
Distance from station: ESE 26km
Updated: 2021-05-14 12:25
Rain, Mostly cloudy
Rain, Mostly cloudy
 Wind from SSW
Wind: SSW 15 km/h
Temperature: 13°C
Dew Point: 9°C
Humidity: 77%
Barometer: 1008 hPa
Summary: Rain
Clouds: Mostly cloudy
Visibility: 10 km
Cloud details: Mostly cloudy 1737 m
2021/05/14 10:25 EBDT 141025Z AUTO 20008KT 9999 RA BKN057/// 13/09 Q1008 BLU
EBBE - Beauvechain, Belgium
Distance from station: S 36km
Updated: 2021-05-14 12:25
Partly cloudy
Partly cloudy
 Wind from SW
Wind: SW 19 km/h
Temperature: 15°C
Dew Point: 8°C
Humidity: 63%
Barometer: 1007 hPa
Clouds: Partly cloudy
Visibility: 10 km
Cloud details: Few Clouds 610 m
Partly cloudy 792 m
2021/05/14 10:25 EBBE 141025Z AUTO 22010KT 9999 FEW020/// SCT026/// 15/08 Q1007 BLU
 
EHWO - Woensdrecht Rnla, Netherlands
Distance from station: NNW 50km
Updated: 2021-05-14 12:25
Clear
Clear
 Wind from W
Wind: W 7 km/h
Temperature: 16°C
Dew Point: 8°C
Humidity: 59%
Barometer: 1007 hPa
Clouds: Clear
Visibility: 10 km
2021/05/14 10:25 EHWO 141025Z AUTO 26004KT 9999 NCD 16/08 Q1007 BLU
EBBL - Kleine-Brogel, Belgium
Distance from station: ENE 54km
Updated: 2021-05-13 07:55
NOT Current
Overcast
Overcast
 Wind from varies
Wind: varies 4 km/h
Temperature: 10°C
Dew Point: 9°C
Humidity: 94%
Barometer: 1007 hPa
Clouds: Overcast
Visibility: 10 km
Cloud details: Overcast 3048 m
2021/05/13 05:55 EBBL 130555Z AUTO VRB02KT 9999 OVC100/// 10/09 Q1007 BLU
 
EHGR - Gilze-Rijen Rnla, Netherlands
Distance from station: NNE 57km
Updated: 2021-05-14 12:25
Overcast
Overcast
 Wind from varies
Wind: varies 9 km/h
Temperature: 16°C
Dew Point: 6°C
Humidity: 52%
Barometer: 1007 hPa
Clouds: Overcast
Visibility: 10 km
Cloud details: Mostly cloudy 1951 m
Overcast 5791 m
2021/05/14 10:25 EHGR 141025Z AUTO VRB05KT 9999 BKN064 OVC190 16/06 Q1007 BLU
EHEH - Eindhoven Rnlafb, Netherlands
Distance from station: NE 63km
Updated: 2021-05-14 12:25
Overcast
Overcast
 Wind from SW
Wind: SW 6 km/h
Temperature: 17°C
Dew Point: 3°C
Humidity: 39%
Barometer: 1007 hPa
Clouds: Overcast
Visibility: 10 km
Cloud details: Mostly cloudy 1158 m
Overcast 1280 m
2021/05/14 10:25 EHEH 141025Z AUTO 22003KT 9999 BKN038 OVC042 17/03 Q1007 BLU NOSIG
 
EBCI - Charleroi, Belgium
Distance from station: SSW 70km
Updated: 2021-05-14 12:20
Partly cloudy
Partly cloudy
 Wind from WSW
Wind: WSW 13 km/h
Temperature: 13°C
Dew Point: 7°C
Humidity: 67%
Barometer: 1008 hPa
Clouds: Partly cloudy
Visibility: 10 km
Cloud details: Partly cloudy 1097 m
2021/05/14 10:20 EBCI 141020Z 24007KT 200V320 9999 SCT036 13/07 Q1008 NOSIG
EBLG - Bierset, Belgium
Distance from station: SE 72km
Updated: 2021-05-14 12:20
Partly cloudy
Partly cloudy
 Wind from WSW
Wind: WSW 13 km/h
Temperature: 15°C
Dew Point: 6°C
Humidity: 55%
Barometer: 1008 hPa
Clouds: Partly cloudy
Visibility: 10 km
Cloud details: Partly cloudy 914 m
2021/05/14 10:20 EBLG 141020Z 24007KT 190V280 9999 SCT030TCU 15/06 Q1008 NOSIG
Benelux Weer Netwerk cwop awekas hwa wcloud pwsweather wow wow